Time;durP1;ratioP1;P1;durP2;ratioP2;P2;SDS_P1;SDS_P2;PMS_P1;PMS_P2;Temp;Humidity;BMP_temperature;BMP_pressure;BME280_temperature;BME280_humidity;BME280_pressure;Samples;Min_cycle;Max_cycle;Signal;HPM_P1;HPM_P2
2022/07/23 00:02:12;;;;;;;6.22;4.47;;;;;;;;;;5002482;28;20241;-53
2022/07/23 00:04:38;;;;;;;5.20;4.63;;;;;;;;;;5005341;28;20233;-53
2022/07/23 00:07:04;;;;;;;5.55;4.97;;;;;;;;;;4995892;28;20668;-53
2022/07/23 00:09:33;;;;;;;7.03;5.20;;;;;;;;;;5006644;28;20753;-53
2022/07/23 00:11:59;;;;;;;4.93;4.45;;;;;;;;;;5002850;28;20245;-53
2022/07/23 00:14:26;;;;;;;6.40;5.13;;;;;;;;;;5005592;28;20845;-53
2022/07/23 00:16:52;;;;;;;5.30;4.80;;;;;;;;;;5005062;28;20247;-53
2022/07/23 00:19:18;;;;;;;5.30;4.80;;;;;;;;;;5001229;28;20229;-52
2022/07/23 00:21:45;;;;;;;5.38;4.85;;;;;;;;;;5004263;28;20237;-53
2022/07/23 00:24:11;;;;;;;5.30;4.82;;;;;;;;;;5012978;28;20613;-52
2022/07/23 00:26:39;;;;;;;5.30;4.80;;;;;;;;;;5003664;28;20228;-52
2022/07/23 00:29:05;;;;;;;7.80;4.97;;;;;;;;;;4998934;28;20237;-52
2022/07/23 00:31:32;;;;;;;5.68;4.72;;;;;;;;;;4994088;28;20236;-52
2022/07/23 00:34:00;;;;;;;9.88;5.93;;;;;;;;;;5003507;28;20329;-53
2022/07/23 00:36:27;;;;;;;5.60;4.75;;;;;;;;;;5002663;28;20255;-53
2022/07/23 00:38:53;;;;;;;6.05;5.50;;;;;;;;;;4998963;28;20312;-53
2022/07/23 00:41:19;;;;;;;5.05;4.65;;;;;;;;;;5001326;28;20997;-53
2022/07/23 00:43:47;;;;;;;5.78;5.20;;;;;;;;;;5000471;28;20277;-52
2022/07/23 00:46:13;;;;;;;5.72;4.57;;;;;;;;;;5005129;28;20316;-51
2022/07/23 00:48:40;;;;;;;5.32;4.38;;;;;;;;;;5004092;28;20229;-53
2022/07/23 00:51:06;;;;;;;5.53;5.03;;;;;;;;;;5006606;28;20244;-53
2022/07/23 00:53:32;;;;;;;5.70;4.97;;;;;;;;;;5002761;28;20726;-52
2022/07/23 00:55:59;;;;;;;5.72;5.03;;;;;;;;;;5004034;28;20241;-51
2022/07/23 00:58:25;;;;;;;6.93;5.40;;;;;;;;;;5016271;28;20291;-52
2022/07/23 01:00:53;;;;;;;6.18;5.57;;;;;;;;;;5004959;28;20237;-51
2022/07/23 01:03:19;;;;;;;6.05;5.00;;;;;;;;;;5009998;28;20239;-52
2022/07/23 01:05:46;;;;;;;6.65;5.28;;;;;;;;;;5003889;28;20324;-52
2022/07/23 01:08:13;;;;;;;5.80;5.30;;;;;;;;;;5000944;28;20237;-53
2022/07/23 01:10:40;;;;;;;6.10;5.30;;;;;;;;;;5007904;28;20232;-53
2022/07/23 01:13:08;;;;;;;5.75;5.18;;;;;;;;;;5005751;28;20661;-52
2022/07/23 01:15:35;;;;;;;6.13;5.63;;;;;;;;;;4998844;28;20601;-54
2022/07/23 01:18:03;;;;;;;5.68;5.18;;;;;;;;;;5005919;28;20245;-52
2022/07/23 01:20:30;;;;;;;5.50;5.10;;;;;;;;;;5006562;28;20228;-53
2022/07/23 01:22:58;;;;;;;6.30;5.80;;;;;;;;;;5003253;28;20241;-52
2022/07/23 01:25:25;;;;;;;6.80;5.47;;;;;;;;;;5005353;28;20236;-52
2022/07/23 01:27:52;;;;;;;6.05;5.55;;;;;;;;;;5003567;28;20225;-52
2022/07/23 01:30:18;;;;;;;6.47;5.72;;;;;;;;;;5002734;28;20244;-53
2022/07/23 01:32:44;;;;;;;9.10;6.18;;;;;;;;;;5002854;28;20233;-52
2022/07/23 01:35:11;;;;;;;6.85;6.13;;;;;;;;;;5003989;28;20229;-52
2022/07/23 01:37:38;;;;;;;6.85;4.97;;;;;;;;;;5007029;28;20233;-53
2022/07/23 01:40:06;;;;;;;6.18;5.68;;;;;;;;;;5002707;28;20241;-52
2022/07/23 01:42:32;;;;;;;10.15;5.43;;;;;;;;;;4998916;28;20903;-55
2022/07/23 01:44:59;;;;;;;6.85;5.40;;;;;;;;;;5004636;28;20260;-51
2022/07/23 01:47:25;;;;;;;5.07;4.60;;;;;;;;;;5003316;28;20268;-53
2022/07/23 01:49:51;;;;;;;5.97;4.95;;;;;;;;;;5016829;28;20229;-53
2022/07/23 01:52:18;;;;;;;7.43;4.95;;;;;;;;;;5003130;28;20246;-53
2022/07/23 01:54:44;;;;;;;5.82;5.43;;;;;;;;;;5002176;28;20229;-53
2022/07/23 01:57:12;;;;;;;6.53;5.10;;;;;;;;;;5002293;28;20237;-51
2022/07/23 01:59:39;;;;;;;6.45;5.80;;;;;;;;;;4998939;28;20238;-52
2022/07/23 02:02:06;;;;;;;6.45;5.80;;;;;;;;;;5000153;28;20264;-53
2022/07/23 02:04:35;;;;;;;9.60;5.45;;;;;;;;;;5005427;28;20238;-52
2022/07/23 02:07:01;;;;;;;6.32;5.72;;;;;;;;;;5000667;28;20300;-52
2022/07/23 02:09:27;;;;;;;5.68;5.18;;;;;;;;;;5004833;28;20229;-52
2022/07/23 02:11:54;;;;;;;8.63;5.90;;;;;;;;;;5000530;28;20256;-52
2022/07/23 02:14:22;;;;;;;6.63;5.80;;;;;;;;;;5002421;28;20336;-53
2022/07/23 02:16:48;;;;;;;8.65;6.03;;;;;;;;;;5001171;28;20232;-52
2022/07/23 02:19:14;;;;;;;8.25;6.25;;;;;;;;;;5009977;28;20599;-51
2022/07/23 02:21:41;;;;;;;8.13;5.70;;;;;;;;;;5003233;28;20303;-52
2022/07/23 02:24:07;;;;;;;6.85;6.15;;;;;;;;;;5000146;28;20248;-52
2022/07/23 02:26:34;;;;;;;7.22;6.53;;;;;;;;;;5003109;28;20233;-53
2022/07/23 02:29:01;;;;;;;6.15;5.65;;;;;;;;;;5001386;28;20241;-53
2022/07/23 02:31:28;;;;;;;6.90;6.30;;;;;;;;;;5006901;28;20311;-53
2022/07/23 02:33:55;;;;;;;7.13;6.45;;;;;;;;;;5002034;28;20233;-53
2022/07/23 02:36:21;;;;;;;5.97;5.30;;;;;;;;;;5003212;28;20241;-53
2022/07/23 02:38:47;;;;;;;5.30;4.82;;;;;;;;;;5003543;28;20228;-53
2022/07/23 02:41:14;;;;;;;6.65;5.80;;;;;;;;;;5001070;28;20735;-53
2022/07/23 02:43:40;;;;;;;7.20;5.78;;;;;;;;;;5003015;28;20236;-53
2022/07/23 02:46:07;;;;;;;7.93;5.22;;;;;;;;;;5005456;28;20229;-53
2022/07/23 02:48:35;;;;;;;6.28;5.43;;;;;;;;;;5002968;28;20238;-53
2022/07/23 02:51:01;;;;;;;5.65;5.15;;;;;;;;;;5004742;28;20613;-53
2022/07/23 02:53:28;;;;;;;6.20;5.60;;;;;;;;;;5005811;28;20798;-53
2022/07/23 02:55:54;;;;;;;6.70;6.15;;;;;;;;;;5008513;28;20240;-53
2022/07/23 02:58:21;;;;;;;6.40;5.10;;;;;;;;;;5002895;28;20236;-53
2022/07/23 03:00:47;;;;;;;6.20;5.40;;;;;;;;;;5003252;28;20236;-52
2022/07/23 03:03:13;;;;;;;7.75;5.25;;;;;;;;;;5001272;28;20236;-52
2022/07/23 03:05:41;;;;;;;6.28;5.75;;;;;;;;;;5001593;28;20241;-53
2022/07/23 03:08:07;;;;;;;5.85;5.20;;;;;;;;;;4997227;28;20782;-52
2022/07/23 03:10:34;;;;;;;5.65;5.13;;;;;;;;;;5005335;28;20235;-51
2022/07/23 03:13:00;;;;;;;5.70;5.13;;;;;;;;;;5003989;28;20240;-52
2022/07/23 03:15:27;;;;;;;5.70;4.97;;;;;;;;;;5000248;28;20260;-53
2022/07/23 03:17:53;;;;;;;8.13;6.25;;;;;;;;;;4999106;28;20769;-53
2022/07/23 03:20:19;;;;;;;7.68;5.95;;;;;;;;;;5001993;28;20237;-52
2022/07/23 03:22:47;;;;;;;8.88;4.88;;;;;;;;;;5002716;28;20263;-53
2022/07/23 03:25:13;;;;;;;6.40;5.03;;;;;;;;;;4997971;28;20240;-53
2022/07/23 03:27:39;;;;;;;7.57;5.15;;;;;;;;;;5002811;28;20239;-52
2022/07/23 03:30:07;;;;;;;6.85;5.30;;;;;;;;;;5001282;28;20383;-54
2022/07/23 03:32:33;;;;;;;5.78;5.03;;;;;;;;;;5001713;28;20233;-53
2022/07/23 03:34:59;;;;;;;5.60;3.97;;;;;;;;;;5000963;28;20233;-52
2022/07/23 03:37:26;;;;;;;6.25;3.83;;;;;;;;;;5004372;28;20260;-53
2022/07/23 03:39:54;;;;;;;6.43;3.92;;;;;;;;;;4998844;28;20233;-53
2022/07/23 03:42:20;;;;;;;5.57;3.60;;;;;;;;;;4996732;28;20239;-53
2022/07/23 03:44:46;;;;;;;7.97;4.35;;;;;;;;;;4997982;28;20835;-52
2022/07/23 03:47:13;;;;;;;4.97;4.22;;;;;;;;;;5001632;28;20236;-52
2022/07/23 03:49:39;;;;;;;5.78;3.22;;;;;;;;;;4998827;28;20812;-51
2022/07/23 03:52:06;;;;;;;6.40;3.38;;;;;;;;;;5000716;28;20772;-52
2022/07/23 03:54:32;;;;;;;4.30;3.35;;;;;;;;;;4997928;28;20229;-52
2022/07/23 03:57:00;;;;;;;4.07;3.45;;;;;;;;;;5004312;28;20738;-52
2022/07/23 03:59:26;;;;;;;4.75;3.03;;;;;;;;;;5001356;28;20232;-53
2022/07/23 04:01:52;;;;;;;4.22;2.92;;;;;;;;;;5000734;28;20233;-53
2022/07/23 04:04:19;;;;;;;3.63;3.30;;;;;;;;;;5002233;28;20233;-52
2022/07/23 04:06:45;;;;;;;5.32;3.45;;;;;;;;;;5005022;28;20229;-52
2022/07/23 04:09:11;;;;;;;3.10;2.78;;;;;;;;;;5005581;28;20237;-53
2022/07/23 04:11:38;;;;;;;2.97;2.78;;;;;;;;;;5004401;28;20244;-53
2022/07/23 04:14:08;;;;;;;3.40;3.10;;;;;;;;;;5001716;28;20234;-53
2022/07/23 04:16:35;;;;;;;3.60;2.88;;;;;;;;;;5002231;28;20236;-57
2022/07/23 04:19:01;;;;;;;3.22;2.92;;;;;;;;;;5005136;28;20245;-53
2022/07/23 04:21:27;;;;;;;5.97;3.20;;;;;;;;;;5002686;28;20241;-52
2022/07/23 04:23:54;;;;;;;4.45;3.25;;;;;;;;;;5010868;28;20233;-54
2022/07/23 04:26:21;;;;;;;3.10;2.80;;;;;;;;;;5005170;28;20256;-53
2022/07/23 04:28:47;;;;;;;3.10;2.90;;;;;;;;;;5005287;28;20229;-53
2022/07/23 04:31:15;;;;;;;4.88;3.00;;;;;;;;;;5006160;28;20244;-53
2022/07/23 04:33:41;;;;;;;5.15;3.05;;;;;;;;;;5005833;28;20229;-52
2022/07/23 04:36:08;;;;;;;6.35;3.40;;;;;;;;;;5004945;28;20352;-53
2022/07/23 04:38:34;;;;;;;7.85;3.70;;;;;;;;;;5005018;28;20229;-58
2022/07/23 04:41:00;;;;;;;4.93;3.92;;;;;;;;;;5010402;28;20229;-52
2022/07/23 04:43:27;;;;;;;4.95;3.42;;;;;;;;;;4999354;28;20239;-52
2022/07/23 04:45:53;;;;;;;5.60;2.67;;;;;;;;;;5005922;28;20233;-54
2022/07/23 04:48:21;;;;;;;7.03;3.88;;;;;;;;;;5007741;28;20230;-53
2022/07/23 04:50:47;;;;;;;5.35;3.47;;;;;;;;;;5001350;28;20233;-53
2022/07/23 04:53:14;;;;;;;8.90;3.47;;;;;;;;;;5004561;28;20245;-54
2022/07/23 04:55:40;;;;;;;8.18;4.00;;;;;;;;;;5004861;28;20233;-56
2022/07/23 04:58:07;;;;;;;7.60;3.40;;;;;;;;;;5005285;28;20229;-52
2022/07/23 05:00:33;;;;;;;7.38;3.85;;;;;;;;;;4999653;28;20257;-53
2022/07/23 05:02:59;;;;;;;4.15;3.75;;;;;;;;;;5004651;28;20894;-53
2022/07/23 05:05:27;;;;;;;6.43;3.45;;;;;;;;;;5008633;28;20357;-53
2022/07/23 05:07:54;;;;;;;6.10;4.18;;;;;;;;;;5001886;28;20225;-60
2022/07/23 05:10:20;;;;;;;6.85;3.33;;;;;;;;;;5001667;28;20241;-54
2022/07/23 05:12:46;;;;;;;7.57;3.70;;;;;;;;;;5004402;28;20244;-54
2022/07/23 05:15:13;;;;;;;5.35;4.03;;;;;;;;;;5001677;28;20244;-53
2022/07/23 05:17:39;;;;;;;4.22;3.60;;;;;;;;;;5003880;28;20236;-52
2022/07/23 05:20:06;;;;;;;4.13;3.50;;;;;;;;;;5004361;28;20754;-53
2022/07/23 05:22:34;;;;;;;5.88;3.90;;;;;;;;;;4997723;28;20248;-53
2022/07/23 05:25:00;;;;;;;5.55;3.25;;;;;;;;;;5001572;28;20687;-54
2022/07/23 05:27:26;;;;;;;7.78;4.00;;;;;;;;;;5002764;28;20233;-54
2022/07/23 05:29:53;;;;;;;4.93;3.60;;;;;;;;;;4999711;28;20233;-52
2022/07/23 05:32:19;;;;;;;4.32;3.42;;;;;;;;;;5002208;28;20245;-56
2022/07/23 05:34:45;;;;;;;4.40;3.53;;;;;;;;;;5005509;28;20226;-52
2022/07/23 05:37:12;;;;;;;5.10;4.32;;;;;;;;;;4998867;28;20233;-53
2022/07/23 05:39:39;;;;;;;4.63;3.33;;;;;;;;;;5003112;28;20754;-54
2022/07/23 05:42:06;;;;;;;4.95;3.50;;;;;;;;;;5000760;28;20237;-52
2022/07/23 05:44:32;;;;;;;3.42;3.10;;;;;;;;;;5002327;28;20236;-51
2022/07/23 05:46:59;;;;;;;5.00;4.40;;;;;;;;;;5013513;28;20790;-53
2022/07/23 05:49:25;;;;;;;7.07;4.32;;;;;;;;;;5000302;28;20241;-55
2022/07/23 05:51:51;;;;;;;7.47;3.13;;;;;;;;;;5002285;28;20233;-54
2022/07/23 05:54:18;;;;;;;5.47;2.95;;;;;;;;;;5004658;28;20828;-54
2022/07/23 05:56:45;;;;;;;4.97;3.40;;;;;;;;;;5006135;28;20233;-54
2022/07/23 05:59:13;;;;;;;5.28;3.03;;;;;;;;;;5009121;28;20640;-56
2022/07/23 06:01:39;;;;;;;4.95;2.92;;;;;;;;;;5007387;28;20268;-55
2022/07/23 06:04:06;;;;;;;3.35;3.05;;;;;;;;;;5016792;28;20237;-52
2022/07/23 06:06:32;;;;;;;3.78;3.22;;;;;;;;;;5003717;28;20237;-56
2022/07/23 06:08:58;;;;;;;5.45;2.83;;;;;;;;;;4998147;28;20309;-53
2022/07/23 06:11:25;;;;;;;3.80;2.97;;;;;;;;;;5006072;28;20229;-54
2022/07/23 06:13:52;;;;;;;5.90;3.58;;;;;;;;;;4999578;28;20233;-55
2022/07/23 06:16:19;;;;;;;5.13;3.13;;;;;;;;;;4997761;28;20247;-54
2022/07/23 06:18:45;;;;;;;6.97;3.70;;;;;;;;;;5003147;28;20237;-54
2022/07/23 06:21:11;;;;;;;5.05;3.35;;;;;;;;;;4997881;28;20235;-54
2022/07/23 06:23:38;;;;;;;6.13;4.10;;;;;;;;;;5014807;28;20225;-53
2022/07/23 06:26:04;;;;;;;3.63;3.15;;;;;;;;;;5003118;28;20241;-52
2022/07/23 06:28:30;;;;;;;3.72;3.42;;;;;;;;;;5002816;28;20229;-53
2022/07/23 06:30:58;;;;;;;4.82;3.38;;;;;;;;;;4998973;28;20236;-53
2022/07/23 06:33:25;;;;;;;8.73;4.97;;;;;;;;;;5000613;28;20237;-53
2022/07/23 06:35:51;;;;;;;5.68;3.80;;;;;;;;;;4998557;28;20244;-53
2022/07/23 06:38:17;;;;;;;5.07;3.70;;;;;;;;;;5003491;28;20475;-52
2022/07/23 06:40:44;;;;;;;3.75;3.45;;;;;;;;;;4995131;28;20260;-54
2022/07/23 06:43:11;;;;;;;5.00;4.05;;;;;;;;;;4999454;28;20236;-53
2022/07/23 06:45:37;;;;;;;6.55;3.55;;;;;;;;;;4998036;28;20233;-53
2022/07/23 06:48:05;;;;;;;4.07;3.42;;;;;;;;;;5000194;28;20233;-53
2022/07/23 06:50:31;;;;;;;5.70;3.63;;;;;;;;;;4996749;28;20228;-54
2022/07/23 06:52:58;;;;;;;4.85;4.10;;;;;;;;;;4999643;28;20248;-53
2022/07/23 06:55:24;;;;;;;4.35;3.70;;;;;;;;;;5002758;28;20716;-52
2022/07/23 06:57:51;;;;;;;6.07;4.03;;;;;;;;;;5000729;28;20791;-53
2022/07/23 07:00:17;;;;;;;5.90;4.75;;;;;;;;;;4999784;28;20241;-53
2022/07/23 07:02:43;;;;;;;5.50;3.92;;;;;;;;;;5001584;28;21467;-54
2022/07/23 07:05:11;;;;;;;4.85;4.20;;;;;;;;;;5001763;28;20266;-53
2022/07/23 07:07:37;;;;;;;8.63;4.40;;;;;;;;;;4999701;28;20253;-53
2022/07/23 07:10:04;;;;;;;5.35;4.00;;;;;;;;;;5007290;28;20233;-53
2022/07/23 07:12:30;;;;;;;7.05;4.07;;;;;;;;;;5000180;28;20225;-53
2022/07/23 07:14:57;;;;;;;6.07;3.60;;;;;;;;;;5000845;28;20239;-53
2022/07/23 07:17:24;;;;;;;7.47;4.40;;;;;;;;;;4998790;28;20315;-52
2022/07/23 07:19:50;;;;;;;6.35;4.95;;;;;;;;;;5000292;28;20321;-53
2022/07/23 07:22:18;;;;;;;6.90;4.35;;;;;;;;;;5003569;28;20229;-53
2022/07/23 07:24:44;;;;;;;4.82;4.40;;;;;;;;;;4996691;28;20230;-51
2022/07/23 07:27:10;;;;;;;4.90;4.18;;;;;;;;;;5000633;28;20759;-53
2022/07/23 07:29:37;;;;;;;7.88;4.00;;;;;;;;;;5000897;28;20244;-52
2022/07/23 07:32:03;;;;;;;6.93;4.28;;;;;;;;;;5000349;28;20247;-52
2022/07/23 07:34:29;;;;;;;6.85;3.72;;;;;;;;;;5001991;28;20229;-52
2022/07/23 07:36:56;;;;;;;4.25;3.78;;;;;;;;;;5002222;28;20251;-52
2022/07/23 07:39:23;;;;;;;7.57;4.15;;;;;;;;;;5002114;28;20245;-52
2022/07/23 07:41:50;;;;;;;3.95;3.55;;;;;;;;;;5005120;28;20232;-52
2022/07/23 07:44:16;;;;;;;4.00;3.60;;;;;;;;;;5005591;28;20237;-53
2022/07/23 07:46:42;;;;;;;5.28;4.57;;;;;;;;;;5003393;28;20669;-53
2022/07/23 07:49:09;;;;;;;3.63;3.35;;;;;;;;;;5004278;28;20243;-53
2022/07/23 07:51:35;;;;;;;7.75;4.30;;;;;;;;;;5003212;28;20255;-53
2022/07/23 07:54:01;;;;;;;4.95;3.95;;;;;;;;;;5006149;28;20229;-52
2022/07/23 07:56:29;;;;;;;5.80;3.72;;;;;;;;;;5007955;28;20229;-53
2022/07/23 07:58:55;;;;;;;5.57;4.45;;;;;;;;;;5004399;28;20247;-54
2022/07/23 08:01:22;;;;;;;6.30;4.47;;;;;;;;;;5005426;28;20237;-53
2022/07/23 08:03:48;;;;;;;6.97;5.35;;;;;;;;;;5015882;28;20231;-53
2022/07/23 08:06:15;;;;;;;5.20;4.70;;;;;;;;;;4999403;28;20832;-53
2022/07/23 08:08:41;;;;;;;4.85;4.35;;;;;;;;;;5004944;28;20228;-52
2022/07/23 08:11:07;;;;;;;10.05;4.88;;;;;;;;;;5017266;28;20237;-52
2022/07/23 08:13:35;;;;;;;4.70;3.92;;;;;;;;;;5009276;28;20301;-52
2022/07/23 08:16:01;;;;;;;5.82;3.45;;;;;;;;;;5005731;28;20229;-53
2022/07/23 08:18:28;;;;;;;7.38;3.88;;;;;;;;;;5019677;28;20682;-51
2022/07/23 08:20:54;;;;;;;3.80;3.38;;;;;;;;;;5015431;28;20677;-52
2022/07/23 08:23:21;;;;;;;5.45;3.75;;;;;;;;;;5003239;28;20785;-53
2022/07/23 08:25:47;;;;;;;6.15;3.35;;;;;;;;;;5008851;28;20233;-53
2022/07/23 08:28:14;;;;;;;5.28;3.75;;;;;;;;;;5004956;28;20237;-51
2022/07/23 08:30:43;;;;;;;3.47;2.95;;;;;;;;;;4997519;28;20233;-52
2022/07/23 08:33:12;;;;;;;5.03;2.75;;;;;;;;;;4997014;28;20249;-50
2022/07/23 08:35:39;;;;;;;4.78;2.72;;;;;;;;;;5002743;28;20240;-52
2022/07/23 08:38:06;;;;;;;4.05;3.10;;;;;;;;;;4997097;28;20234;-52
2022/07/23 08:40:34;;;;;;;2.85;2.20;;;;;;;;;;5001155;28;20233;-52
2022/07/23 08:43:02;;;;;;;3.22;2.05;;;;;;;;;;4998144;28;20583;-52
2022/07/23 08:45:29;;;;;;;5.97;3.17;;;;;;;;;;5002741;28;20237;-52
2022/07/23 08:47:58;;;;;;;4.20;2.83;;;;;;;;;;5001063;28;20229;-53
2022/07/23 08:50:25;;;;;;;5.82;3.30;;;;;;;;;;5005645;28;20699;-52
2022/07/23 08:52:52;;;;;;;4.03;2.58;;;;;;;;;;5000814;28;20225;-52
2022/07/23 08:55:19;;;;;;;5.82;3.78;;;;;;;;;;4994999;28;20233;-53
2022/07/23 08:57:48;;;;;;;3.88;3.13;;;;;;;;;;4996517;28;20723;-53
2022/07/23 09:00:15;;;;;;;3.50;2.78;;;;;;;;;;4998320;28;20245;-53
2022/07/23 09:02:42;;;;;;;4.40;2.75;;;;;;;;;;4997209;28;20233;-53
2022/07/23 09:05:11;;;;;;;3.85;3.10;;;;;;;;;;5000977;28;20707;-52
2022/07/23 09:07:38;;;;;;;3.97;2.83;;;;;;;;;;5002628;28;20230;-52
2022/07/23 09:10:09;;;;;;;2.67;2.35;;;;;;;;;;5003551;28;20782;-53
2022/07/23 09:12:35;;;;;;;3.33;2.53;;;;;;;;;;4995651;28;20237;-53
2022/07/23 09:15:05;;;;;;;4.63;3.10;;;;;;;;;;4996727;28;20230;-53
2022/07/23 09:17:38;;;;;;;3.08;2.70;;;;;;;;;;4999875;28;20229;-52
2022/07/23 09:20:10;;;;;;;3.38;2.60;;;;;;;;;;5001903;28;20229;-52
2022/07/23 09:22:36;;;;;;;8.32;3.70;;;;;;;;;;4999855;28;20229;-53
2022/07/23 09:25:03;;;;;;;3.83;2.40;;;;;;;;;;5001855;28;20241;-52
2022/07/23 09:27:46;;;;;;;4.97;3.50;;;;;;;;;;5003494;28;20225;-52
2022/07/23 09:30:12;;;;;;;5.18;2.88;;;;;;;;;;5006139;28;20631;-52
2022/07/23 09:32:39;;;;;;;3.78;3.42;;;;;;;;;;5006687;28;20244;-52
2022/07/23 09:35:06;;;;;;;3.95;3.58;;;;;;;;;;5007241;28;20233;-53
2022/07/23 09:37:34;;;;;;;3.08;2.78;;;;;;;;;;4997811;28;20225;-52
2022/07/23 09:40:04;;;;;;;5.35;3.53;;;;;;;;;;5005937;28;20740;-51
2022/07/23 09:42:31;;;;;;;3.78;2.83;;;;;;;;;;5005426;28;20546;-51
2022/07/23 09:44:58;;;;;;;4.25;3.25;;;;;;;;;;5005920;28;20237;-51
2022/07/23 09:47:26;;;;;;;5.18;3.10;;;;;;;;;;5005704;28;20237;-53
2022/07/23 09:49:59;;;;;;;5.00;2.97;;;;;;;;;;5002646;28;20222;-52
2022/07/23 09:52:27;;;;;;;5.57;3.25;;;;;;;;;;5005458;28;20746;-52
2022/07/23 09:54:59;;;;;;;6.95;3.33;;;;;;;;;;5001387;28;20243;-53
2022/07/23 09:57:26;;;;;;;3.10;2.70;;;;;;;;;;4986396;28;20242;-52
2022/07/23 09:59:53;;;;;;;7.30;3.17;;;;;;;;;;5002940;28;20739;-51
2022/07/23 10:02:19;;;;;;;4.05;2.85;;;;;;;;;;4999324;28;21129;-53
2022/07/23 10:04:45;;;;;;;4.20;2.88;;;;;;;;;;4997142;28;20236;-52
2022/07/23 10:07:12;;;;;;;4.07;3.33;;;;;;;;;;4997975;28;20236;-52
2022/07/23 10:09:40;;;;;;;3.63;3.28;;;;;;;;;;5004637;28;20225;-52
2022/07/23 10:15:05;;;;;;;3.47;2.60;;;;;;;;;;4920921;28;20766;-53
2022/07/23 10:17:32;;;;;;;5.60;3.33;;;;;;;;;;4981467;28;20365;-52
2022/07/23 10:19:58;;;;;;;4.32;3.10;;;;;;;;;;4996027;28;20789;-52
2022/07/23 10:22:26;;;;;;;3.00;2.42;;;;;;;;;;5001410;28;20236;-53
2022/07/23 10:25:10;;;;;;;3.67;2.42;;;;;;;;;;4997589;28;20240;-52
2022/07/23 10:28:05;;;;;;;4.07;3.28;;;;;;;;;;4994837;28;20230;-53
2022/07/23 10:30:35;;;;;;;2.90;2.60;;;;;;;;;;4992431;28;20248;-52
2022/07/23 10:33:10;;;;;;;4.80;2.95;;;;;;;;;;5002669;28;20237;-51
2022/07/23 10:35:38;;;;;;;6.57;3.38;;;;;;;;;;4999179;28;20225;-53
2022/07/23 10:38:11;;;;;;;4.90;3.08;;;;;;;;;;5005037;28;20238;-52
2022/07/23 10:40:37;;;;;;;2.72;2.50;;;;;;;;;;4998206;28;20287;-52
2022/07/23 10:43:13;;;;;;;3.35;2.90;;;;;;;;;;4998180;28;20294;-51
2022/07/23 10:45:40;;;;;;;2.85;2.47;;;;;;;;;;5002357;28;20228;-52
2022/07/23 10:48:13;;;;;;;2.85;2.60;;;;;;;;;;4999421;28;20248;-52
2022/07/23 10:50:40;;;;;;;5.25;3.08;;;;;;;;;;4997122;28;20295;-52
2022/07/23 10:53:12;;;;;;;2.95;2.70;;;;;;;;;;4996682;28;20245;-53
2022/07/23 10:55:43;;;;;;;4.90;2.47;;;;;;;;;;4991871;28;20229;-53
2022/07/23 10:58:11;;;;;;;5.03;2.75;;;;;;;;;;4998646;28;20261;-51
2022/07/23 11:00:37;;;;;;;6.95;3.28;;;;;;;;;;5001550;28;20237;-53
2022/07/23 11:03:24;;;;;;;6.63;4.68;;;;;;;;;;5004286;28;20244;-52
2022/07/23 11:05:50;;;;;;;7.13;2.60;;;;;;;;;;5002878;28;20233;-52
2022/07/23 11:08:20;;;;;;;3.38;2.83;;;;;;;;;;5005349;28;20229;-51
2022/07/23 11:10:48;;;;;;;4.25;3.75;;;;;;;;;;5001516;28;21057;-53
2022/07/23 11:13:32;;;;;;;4.07;3.33;;;;;;;;;;5000198;28;21027;-52
2022/07/23 11:16:10;;;;;;;3.72;2.70;;;;;;;;;;5005067;28;20881;-52
2022/07/23 11:18:55;;;;;;;3.13;2.90;;;;;;;;;;5003757;28;20248;-53
2022/07/23 11:21:42;;;;;;;5.57;3.45;;;;;;;;;;5009712;28;20253;-53
2022/07/23 11:24:09;;;;;;;5.57;3.42;;;;;;;;;;4998756;28;20289;-52
2022/07/23 11:26:44;;;;;;;5.93;3.05;;;;;;;;;;5003481;28;20244;-52
2022/07/23 11:29:25;;;;;;;3.75;3.15;;;;;;;;;;5007140;28;20228;-53
2022/07/23 11:31:54;;;;;;;4.07;3.15;;;;;;;;;;5008355;28;20233;-53
2022/07/23 11:34:29;;;;;;;3.65;3.00;;;;;;;;;;5005594;28;20256;-52
2022/07/23 11:36:55;;;;;;;5.78;2.58;;;;;;;;;;5000192;28;20240;-52
2022/07/23 11:39:21;;;;;;;4.50;2.90;;;;;;;;;;5005672;28;20243;-52
2022/07/23 11:41:48;;;;;;;4.57;2.50;;;;;;;;;;5005397;28;20237;-53
2022/07/23 11:44:25;;;;;;;4.00;2.58;;;;;;;;;;5006892;28;20235;-53
2022/07/23 11:46:57;;;;;;;2.63;2.40;;;;;;;;;;5006545;28;20229;-53
2022/07/23 11:49:23;;;;;;;4.45;3.05;;;;;;;;;;5005684;28;20233;-52
2022/07/23 11:52:03;;;;;;;3.72;3.08;;;;;;;;;;5005148;28;20233;-52
2022/07/23 11:54:29;;;;;;;4.07;2.65;;;;;;;;;;5006377;28;20240;-53
2022/07/23 11:56:56;;;;;;;3.80;2.92;;;;;;;;;;5007144;28;20270;-55
2022/07/23 11:59:23;;;;;;;6.40;3.30;;;;;;;;;;5011117;28;20237;-51
2022/07/23 12:01:58;;;;;;;3.28;2.53;;;;;;;;;;5006264;28;20233;-52
2022/07/23 12:04:25;;;;;;;1.98;1.88;;;;;;;;;;5001080;28;20232;-52
2022/07/23 12:06:51;;;;;;;4.97;2.42;;;;;;;;;;4999631;28;20229;-53
2022/07/23 12:09:17;;;;;;;4.18;2.65;;;;;;;;;;5000269;28;20346;-51
2022/07/23 12:11:57;;;;;;;4.35;3.00;;;;;;;;;;5002171;28;20237;-53
2022/07/23 12:14:23;;;;;;;4.38;2.83;;;;;;;;;;5004272;28;20727;-52
2022/07/23 12:17:07;;;;;;;4.07;3.33;;;;;;;;;;5001441;28;20303;-53
2022/07/23 12:19:33;;;;;;;3.97;3.00;;;;;;;;;;4999124;28;20237;-52
2022/07/23 12:22:00;;;;;;;3.60;2.78;;;;;;;;;;5002940;28;20252;-52
2022/07/23 12:24:27;;;;;;;4.28;2.85;;;;;;;;;;4999560;28;20244;-52
2022/07/23 12:27:08;;;;;;;4.50;2.40;;;;;;;;;;5005477;28;20252;-52
2022/07/23 12:29:35;;;;;;;5.10;3.30;;;;;;;;;;5003263;28;20240;-51
2022/07/23 12:32:03;;;;;;;6.15;3.28;;;;;;;;;;4997395;28;20386;-51
2022/07/23 12:34:29;;;;;;;4.22;3.20;;;;;;;;;;4998780;28;20241;-52
2022/07/23 12:36:55;;;;;;;4.68;3.15;;;;;;;;;;4998573;28;20240;-51
2022/07/23 12:39:30;;;;;;;3.10;2.80;;;;;;;;;;4998786;28;20233;-53
2022/07/23 12:41:56;;;;;;;4.05;2.92;;;;;;;;;;4998285;28;20279;-52
2022/07/23 12:44:23;;;;;;;4.50;3.22;;;;;;;;;;5002943;28;20703;-51
2022/07/23 12:46:50;;;;;;;6.22;3.63;;;;;;;;;;4997436;28;20230;-51
2022/07/23 12:49:27;;;;;;;4.35;3.00;;;;;;;;;;5006849;28;20236;-52
2022/07/23 12:51:53;;;;;;;3.42;3.20;;;;;;;;;;4998407;28;20236;-52
2022/07/23 12:54:27;;;;;;;4.88;2.88;;;;;;;;;;4998568;28;20417;-52
2022/07/23 12:56:54;;;;;;;6.70;2.97;;;;;;;;;;4996955;28;20704;-51
2022/07/23 12:59:20;;;;;;;3.05;2.78;;;;;;;;;;5000956;28;20229;-52
2022/07/23 13:01:54;;;;;;;3.28;3.00;;;;;;;;;;4996708;28;20233;-52
2022/07/23 13:04:21;;;;;;;5.35;3.03;;;;;;;;;;4998780;28;20253;-51
2022/07/23 13:06:50;;;;;;;3.75;2.80;;;;;;;;;;4997355;28;20241;-53
2022/07/23 13:09:17;;;;;;;3.92;2.97;;;;;;;;;;4997691;28;20221;-51
2022/07/23 13:11:45;;;;;;;5.82;3.15;;;;;;;;;;4997727;28;20331;-53
2022/07/23 13:14:11;;;;;;;4.80;3.03;;;;;;;;;;4998177;28;20252;-52
2022/07/23 13:16:37;;;;;;;3.83;3.10;;;;;;;;;;4996840;28;20233;-52
2022/07/23 13:19:04;;;;;;;6.95;3.08;;;;;;;;;;4998044;28;20235;-53
2022/07/23 13:21:30;;;;;;;3.65;3.00;;;;;;;;;;4999370;28;20233;-52
2022/07/23 13:23:58;;;;;;;3.13;2.83;;;;;;;;;;5004232;28;21260;-52
2022/07/23 13:26:25;;;;;;;3.00;2.47;;;;;;;;;;5006852;28;20229;-51
2022/07/23 13:28:51;;;;;;;3.10;2.80;;;;;;;;;;5004620;28;20244;-51
2022/07/23 13:31:18;;;;;;;3.08;2.70;;;;;;;;;;5006234;28;20237;-52
2022/07/23 13:33:44;;;;;;;3.78;2.45;;;;;;;;;;5005649;28;20245;-52
2022/07/23 13:36:11;;;;;;;3.95;2.80;;;;;;;;;;5000164;28;20308;-51
2022/07/23 13:38:37;;;;;;;3.72;2.85;;;;;;;;;;5003062;28;20233;-53
2022/07/23 13:41:05;;;;;;;3.00;2.42;;;;;;;;;;5004217;28;20244;-52
2022/07/23 13:43:31;;;;;;;3.58;2.40;;;;;;;;;;4991909;28;20745;-52
2022/07/23 13:45:57;;;;;;;2.75;2.55;;;;;;;;;;5003700;28;20252;-51
2022/07/23 13:48:24;;;;;;;4.55;2.50;;;;;;;;;;5005317;28;20231;-52
2022/07/23 13:50:50;;;;;;;4.68;2.78;;;;;;;;;;4999847;28;20238;-52
2022/07/23 13:53:17;;;;;;;4.68;2.65;;;;;;;;;;5009707;28;20612;-53
2022/07/23 13:55:45;;;;;;;2.78;2.58;;;;;;;;;;5007826;28;20240;-53
2022/07/23 13:58:13;;;;;;;5.13;3.17;;;;;;;;;;5006942;28;20240;-53
2022/07/23 14:00:40;;;;;;;4.97;2.67;;;;;;;;;;5004234;28;20236;-52
2022/07/23 14:03:06;;;;;;;2.90;2.70;;;;;;;;;;5005913;28;20244;-52
2022/07/23 14:05:33;;;;;;;5.25;3.70;;;;;;;;;;5002024;28;20236;-52
2022/07/23 14:08:00;;;;;;;3.00;2.78;;;;;;;;;;4999864;28;20374;-53
2022/07/23 14:10:26;;;;;;;2.50;2.30;;;;;;;;;;5002652;28;20248;-52
2022/07/23 14:12:55;;;;;;;3.28;2.40;;;;;;;;;;5000801;28;20239;-52
2022/07/23 14:15:23;;;;;;;4.28;2.97;;;;;;;;;;4998348;28;20241;-52
2022/07/23 14:17:50;;;;;;;3.55;3.25;;;;;;;;;;4998812;28;20318;-53
2022/07/23 14:20:16;;;;;;;2.55;2.00;;;;;;;;;;5000844;28;20537;-53
2022/07/23 14:22:43;;;;;;;2.38;2.05;;;;;;;;;;5000216;28;20229;-52
2022/07/23 14:25:10;;;;;;;1.83;1.73;;;;;;;;;;5003259;28;20241;-51
2022/07/23 14:27:37;;;;;;;3.00;2.72;;;;;;;;;;4996193;28;20233;-51
2022/07/23 14:30:04;;;;;;;2.40;2.17;;;;;;;;;;5003611;28;20328;-51
2022/07/23 14:32:32;;;;;;;2.15;1.95;;;;;;;;;;5002775;28;20248;-54
2022/07/23 14:34:59;;;;;;;4.05;2.38;;;;;;;;;;4999059;28;20245;-52
2022/07/23 14:37:25;;;;;;;1.90;1.80;;;;;;;;;;5002645;28;20703;-52
2022/07/23 14:39:52;;;;;;;3.78;2.75;;;;;;;;;;5000568;28;20237;-53
2022/07/23 14:42:18;;;;;;;3.40;2.15;;;;;;;;;;5000957;28;20233;-52
2022/07/23 14:44:45;;;;;;;4.00;2.90;;;;;;;;;;5000063;28;20240;-51
2022/07/23 14:47:11;;;;;;;2.65;2.25;;;;;;;;;;5001646;28;20244;-52
2022/07/23 14:49:39;;;;;;;2.92;2.60;;;;;;;;;;5002946;28;20233;-52